createdAt,value
2017-10-05T00:00:12.708Z,100423.58
2017-10-05T00:01:15.224Z,100413.12
2017-10-05T00:02:17.249Z,100408.84
2017-10-05T00:03:19.201Z,100404.59
2017-10-05T00:04:21.139Z,100419.20
2017-10-05T00:05:23.138Z,100415.20
2017-10-05T00:06:25.877Z,100417.55
2017-10-05T00:07:27.897Z,100410.83
2017-10-05T00:08:29.930Z,100407.50
2017-10-05T00:09:31.890Z,100400.71
2017-10-05T00:10:33.828Z,100406.95
2017-10-05T00:11:37.921Z,100405.27
2017-10-05T00:12:39.834Z,100402.87
2017-10-05T00:13:41.681Z,100397.28
2017-10-05T00:14:43.626Z,100392.91
2017-10-05T00:15:45.577Z,100386.81
2017-10-05T00:16:47.623Z,100385.14
2017-10-05T00:17:49.511Z,100390.00
2017-10-05T00:18:51.479Z,100386.42
2017-10-05T00:19:53.498Z,100390.58
2017-10-05T00:20:55.407Z,100385.87
2017-10-05T00:22:00.087Z,100390.13
2017-10-05T00:23:02.011Z,100392.63
2017-10-05T00:24:04.013Z,100398.71
2017-10-05T00:25:06.479Z,100393.02
2017-10-05T00:26:08.353Z,100394.30
2017-10-05T00:27:10.381Z,100391.61
2017-10-05T00:28:12.342Z,100393.42
2017-10-05T00:29:14.271Z,100395.59
2017-10-05T00:30:16.164Z,100390.66
2017-10-05T00:31:18.082Z,100383.56
2017-10-05T00:32:20.048Z,100374.36
2017-10-05T00:33:21.961Z,100371.23
2017-10-05T00:34:23.955Z,100358.74
2017-10-05T00:35:25.881Z,100356.21
2017-10-05T00:36:27.782Z,100356.64
2017-10-05T00:37:29.732Z,100356.14
2017-10-05T00:38:31.720Z,100355.78
2017-10-05T00:39:33.723Z,100349.27
2017-10-05T00:40:35.689Z,100343.88
2017-10-05T00:41:37.635Z,100337.42
2017-10-05T00:42:39.598Z,100331.38
2017-10-05T00:43:41.509Z,100332.13
2017-10-05T00:44:43.500Z,100333.94
2017-10-05T00:45:45.448Z,100337.00
2017-10-05T00:46:47.417Z,100336.31
2017-10-05T00:47:49.410Z,100340.91
2017-10-05T00:48:51.828Z,100342.07
2017-10-05T00:49:57.430Z,100352.69
2017-10-05T00:50:59.320Z,100352.47
2017-10-05T00:52:01.273Z,100342.20
2017-10-05T00:53:03.322Z,100332.63
2017-10-05T00:54:05.266Z,100338.41
2017-10-05T00:55:07.214Z,100345.48
2017-10-05T00:56:09.257Z,100342.27
2017-10-05T00:57:11.224Z,100343.67
2017-10-05T00:58:13.260Z,100335.58
2017-10-05T00:59:17.273Z,100336.40
2017-10-05T01:00:19.173Z,100330.71
2017-10-05T01:01:21.110Z,100329.73
2017-10-05T01:02:22.558Z,100318.84
2017-10-05T01:03:23.952Z,100313.06
2017-10-05T01:04:27.877Z,100319.80
2017-10-05T01:05:29.825Z,100314.92
2017-10-05T01:06:31.792Z,100323.28
2017-10-05T01:07:33.657Z,100313.69
2017-10-05T01:08:36.157Z,100309.19
2017-10-05T01:09:38.032Z,100313.75
2017-10-05T01:10:39.959Z,100311.13
2017-10-05T01:11:41.891Z,100308.52
2017-10-05T01:12:47.807Z,100316.32
2017-10-05T01:13:49.831Z,100317.23
2017-10-05T01:14:51.842Z,100310.17
2017-10-05T01:15:53.812Z,100305.73
2017-10-05T01:16:55.749Z,100300.83
2017-10-05T01:17:58.336Z,100292.45
2017-10-05T01:19:00.328Z,100289.95
2017-10-05T01:20:02.262Z,100274.98
2017-10-05T01:21:04.241Z,100281.86
2017-10-05T01:22:06.212Z,100275.67
2017-10-05T01:23:08.153Z,100267.28
2017-10-05T01:24:10.125Z,100274.39
2017-10-05T01:25:12.085Z,100272.58
2017-10-05T01:26:14.036Z,100264.48
2017-10-05T01:27:16.014Z,100268.63
2017-10-05T01:28:17.945Z,100263.77
2017-10-05T01:29:20.903Z,100259.56
2017-10-05T01:30:22.947Z,100251.27
2017-10-05T01:31:24.892Z,100257.75
2017-10-05T01:32:26.801Z,100253.41
2017-10-05T01:33:28.891Z,100246.34
2017-10-05T01:34:30.913Z,100246.01
2017-10-05T01:35:32.836Z,100231.80
2017-10-05T01:36:34.788Z,100235.78
2017-10-05T01:37:36.750Z,100228.88
2017-10-05T01:38:38.663Z,100219.56
2017-10-05T01:39:40.641Z,100218.28
2017-10-05T01:40:43.480Z,100219.53
2017-10-05T01:41:45.490Z,100219.50
2017-10-05T01:42:47.414Z,100218.48
2017-10-05T01:43:49.374Z,100212.72
2017-10-05T01:44:51.435Z,100205.28
2017-10-05T01:45:53.384Z,100208.02
2017-10-05T01:46:55.286Z,100199.63
2017-10-05T01:47:57.314Z,100200.91
2017-10-05T01:48:59.266Z,100206.14
2017-10-05T01:50:04.070Z,100212.09
2017-10-05T01:51:06.148Z,100203.70
2017-10-05T01:52:08.174Z,100203.17
2017-10-05T01:53:10.342Z,100197.62
2017-10-05T01:54:12.301Z,100203.30
2017-10-05T01:55:14.311Z,100189.63
2017-10-05T01:56:16.730Z,100189.48
2017-10-05T01:57:19.045Z,100186.92
2017-10-05T01:58:21.039Z,100191.23
2017-10-05T01:59:23.109Z,100180.38
2017-10-05T02:00:25.099Z,100187.52
2017-10-05T02:01:27.033Z,100190.65
2017-10-05T02:02:29.037Z,100200.28
2017-10-05T02:03:31.007Z,100198.44
2017-10-05T02:04:32.892Z,100181.69
2017-10-05T02:05:34.864Z,100162.84
2017-10-05T02:06:36.935Z,100163.73
2017-10-05T02:07:38.863Z,100148.84
2017-10-05T02:08:40.797Z,100163.84
2017-10-05T02:09:43.566Z,100159.53
2017-10-05T02:10:45.546Z,100165.48
2017-10-05T02:11:47.640Z,100160.54
2017-10-05T02:12:49.570Z,100154.45
2017-10-05T02:13:51.506Z,100153.70
2017-10-05T02:14:54.099Z,100165.26
2017-10-05T02:15:56.098Z,100153.38
2017-10-05T02:16:58.029Z,100152.03
2017-10-05T02:17:59.928Z,100159.36
2017-10-05T02:19:01.813Z,100162.78
2017-10-05T02:20:03.729Z,100153.96
2017-10-05T02:21:07.653Z,100156.34
2017-10-05T02:22:09.615Z,100159.03
2017-10-05T02:23:11.534Z,100161.84
2017-10-05T02:24:13.521Z,100164.37
2017-10-05T02:25:15.385Z,100158.25
2017-10-05T02:26:17.440Z,100149.40
2017-10-05T02:27:19.375Z,100157.39
2017-10-05T02:28:21.903Z,100152.03
2017-10-05T02:29:27.313Z,100154.39
2017-10-05T02:30:29.272Z,100139.20
2017-10-05T02:31:34.585Z,100140.45
2017-10-05T02:32:36.511Z,100147.52
2017-10-05T02:33:38.568Z,100143.05
2017-10-05T02:34:40.503Z,100142.13
2017-10-05T02:35:42.345Z,100142.48
2017-10-05T02:36:44.343Z,100141.72
2017-10-05T02:37:46.234Z,100137.28
2017-10-05T02:38:48.610Z,100136.50
2017-10-05T02:39:51.432Z,100131.13
2017-10-05T02:40:54.041Z,100127.83
2017-10-05T02:41:55.975Z,100129.81
2017-10-05T02:42:57.865Z,100124.52
2017-10-05T02:43:59.904Z,100121.98
2017-10-05T02:45:02.654Z,100108.13
2017-10-05T02:46:06.059Z,100109.19
2017-10-05T02:47:09.069Z,100105.70
2017-10-05T02:48:12.210Z,100115.62
2017-10-05T02:49:15.548Z,100112.20
2017-10-05T02:50:19.104Z,100116.25
2017-10-05T02:51:22.313Z,100122.47
2017-10-05T02:52:25.412Z,100107.72
2017-10-05T02:53:29.548Z,100110.64
2017-10-05T02:54:33.670Z,100105.37
2017-10-05T02:55:37.715Z,100109.89
2017-10-05T02:56:41.705Z,100115.79
2017-10-05T02:57:46.719Z,100116.12
2017-10-05T02:58:51.057Z,100110.72
2017-10-05T02:59:54.310Z,100109.83
2017-10-05T03:00:56.737Z,100105.98
2017-10-05T03:01:58.639Z,100102.20
2017-10-05T03:03:01.832Z,100100.83
2017-10-05T03:04:06.107Z,100098.69
2017-10-05T03:05:10.556Z,100101.17
2017-10-05T03:06:13.562Z,100079.20
2017-10-05T03:07:17.082Z,100075.03
2017-10-05T03:08:19.517Z,100077.51
2017-10-05T03:09:22.996Z,100074.77
2017-10-05T03:10:26.539Z,100065.36
2017-10-05T03:11:29.781Z,100058.73
2017-10-05T03:12:33.003Z,100051.18
2017-10-05T03:13:35.911Z,100060.33
2017-10-05T03:14:40.021Z,100044.36
2017-10-05T03:15:43.218Z,100049.82
2017-10-05T03:16:46.532Z,100040.98
2017-10-05T03:17:50.887Z,100046.23
2017-10-05T03:18:54.790Z,100045.95
2017-10-05T03:19:58.176Z,100044.70
2017-10-05T03:21:05.696Z,100045.81
2017-10-05T03:22:09.855Z,100053.70
2017-10-05T03:23:14.484Z,100048.47
2017-10-05T03:24:18.174Z,100043.78
2017-10-05T03:25:21.231Z,100044.27
2017-10-05T03:26:24.286Z,100035.33
2017-10-05T03:27:27.195Z,100046.05
2017-10-05T03:28:29.954Z,100048.74
2017-10-05T03:29:36.435Z,100047.17
2017-10-05T03:30:40.859Z,100043.00
2017-10-05T03:31:43.898Z,100040.77
2017-10-05T03:32:46.763Z,100042.52
2017-10-05T03:33:49.234Z,100038.73
2017-10-05T03:34:51.186Z,100035.68
2017-10-05T03:35:53.113Z,100031.11
2017-10-05T03:36:55.053Z,100026.45
2017-10-05T03:37:56.953Z,100022.09
2017-10-05T03:38:58.889Z,100017.88
2017-10-05T03:40:00.835Z,100019.46
2017-10-05T03:41:02.951Z,100013.16
2017-10-05T03:42:04.853Z,100012.34
2017-10-05T03:43:06.860Z,100006.19
2017-10-05T03:44:08.903Z,99998.61
2017-10-05T03:45:13.011Z,99994.70
2017-10-05T03:46:14.944Z,99991.72
2017-10-05T03:47:16.979Z,99985.67
2017-10-05T03:48:18.993Z,99984.82
2017-10-05T03:49:20.927Z,99981.56
2017-10-05T03:50:22.971Z,99983.11
2017-10-05T03:51:24.927Z,99975.00
2017-10-05T03:52:26.882Z,99974.31
2017-10-05T03:53:28.891Z,99968.31
2017-10-05T03:54:30.932Z,99964.14
2017-10-05T03:55:32.883Z,99962.23
2017-10-05T03:56:34.997Z,99952.16
2017-10-05T03:57:36.916Z,99949.56
2017-10-05T03:58:38.936Z,99954.55
2017-10-05T03:59:40.904Z,99944.44
2017-10-05T04:00:42.925Z,99944.97
2017-10-05T04:01:44.908Z,99942.60
2017-10-05T04:02:47.160Z,99955.95
2017-10-05T04:03:49.166Z,99949.66
2017-10-05T04:04:51.081Z,99954.58
2017-10-05T04:05:53.065Z,99951.00
2017-10-05T04:06:55.034Z,99950.08
2017-10-05T04:07:56.997Z,99953.95
2017-10-05T04:08:58.928Z,99944.08
2017-10-05T04:10:00.873Z,99953.20
2017-10-05T04:11:03.229Z,99949.50
2017-10-05T04:12:05.326Z,99944.90
2017-10-05T04:13:07.325Z,99946.81
2017-10-05T04:14:09.195Z,99944.91
2017-10-05T04:15:11.179Z,99935.61
2017-10-05T04:16:13.216Z,99936.83
2017-10-05T04:17:15.672Z,99942.97
2017-10-05T04:18:17.570Z,99944.28
2017-10-05T04:19:19.511Z,99940.14
2017-10-05T04:20:21.476Z,99932.89
2017-10-05T04:21:23.533Z,99931.64
2017-10-05T04:22:25.438Z,99925.70
2017-10-05T04:23:27.374Z,99928.79
2017-10-05T04:24:29.377Z,99921.70
2017-10-05T04:25:31.434Z,99918.13
2017-10-05T04:26:33.380Z,99912.58
2017-10-05T04:27:35.311Z,99923.73
2017-10-05T04:28:37.216Z,99914.09
2017-10-05T04:29:39.133Z,99919.63
2017-10-05T04:30:41.060Z,99909.30
2017-10-05T04:31:43.028Z,99905.88
2017-10-05T04:32:44.972Z,99902.11
2017-10-05T04:33:46.899Z,99893.48
2017-10-05T04:34:48.870Z,99891.80
2017-10-05T04:35:50.809Z,99887.34
2017-10-05T04:36:52.797Z,99886.98
2017-10-05T04:37:54.698Z,99884.06
2017-10-05T04:38:57.376Z,99879.60
2017-10-05T04:39:59.277Z,99884.91
2017-10-05T04:41:01.198Z,99885.64
2017-10-05T04:42:03.143Z,99877.14
2017-10-05T04:43:05.603Z,99874.77
2017-10-05T04:44:07.621Z,99874.16
2017-10-05T04:45:09.656Z,99878.71
2017-10-05T04:46:11.597Z,99877.27
2017-10-05T04:47:13.766Z,99878.45
2017-10-05T04:48:16.107Z,99876.31
2017-10-05T04:49:18.388Z,99866.45
2017-10-05T04:50:20.881Z,99867.83
2017-10-05T04:51:23.295Z,99871.83
2017-10-05T04:52:25.847Z,99868.09
2017-10-05T04:53:27.848Z,99860.97
2017-10-05T04:54:29.817Z,99857.72
2017-10-05T04:55:32.200Z,99855.59
2017-10-05T04:56:34.921Z,99859.81
2017-10-05T04:57:37.079Z,99857.69
2017-10-05T04:58:39.072Z,99854.24
2017-10-05T04:59:40.959Z,99851.13
2017-10-05T05:00:43.138Z,99846.77
2017-10-05T05:01:45.415Z,99841.36
2017-10-05T05:02:48.056Z,99842.70
2017-10-05T05:03:50.051Z,99844.53
2017-10-05T05:04:51.982Z,99840.56
2017-10-05T05:05:53.908Z,99844.23
2017-10-05T05:06:59.553Z,99853.03
2017-10-05T05:08:01.482Z,99839.94
2017-10-05T05:09:03.998Z,99842.59
2017-10-05T05:10:05.953Z,99839.39
2017-10-05T05:11:07.873Z,99835.06
2017-10-05T05:12:09.845Z,99828.63
2017-10-05T05:13:11.796Z,99831.38
2017-10-05T05:14:13.732Z,99828.37
2017-10-05T05:15:15.653Z,99827.71
2017-10-05T05:16:17.622Z,99825.48
2017-10-05T05:17:19.488Z,99830.77
2017-10-05T05:18:21.438Z,99823.97
2017-10-05T05:19:23.363Z,99821.78
2017-10-05T05:20:25.226Z,99813.38
2017-10-05T05:21:27.113Z,99812.43
2017-10-05T05:22:29.022Z,99811.58
2017-10-05T05:23:31.075Z,99798.73
2017-10-05T05:24:32.984Z,99796.10
2017-10-05T05:25:34.869Z,99793.31
2017-10-05T05:26:36.808Z,99795.31
2017-10-05T05:27:38.791Z,99794.89
2017-10-05T05:28:40.812Z,99787.55
2017-10-05T05:29:43.820Z,99793.31
2017-10-05T05:30:46.986Z,99784.03
2017-10-05T05:31:48.924Z,99774.27
2017-10-05T05:32:50.935Z,99773.22
2017-10-05T05:33:52.892Z,99766.20
2017-10-05T05:34:54.940Z,99758.33
2017-10-05T05:35:56.932Z,99758.36
2017-10-05T05:36:58.973Z,99753.31
2017-10-05T05:38:00.933Z,99755.60
2017-10-05T05:39:02.862Z,99752.17
2017-10-05T05:40:05.145Z,99752.62
2017-10-05T05:41:07.110Z,99743.55
2017-10-05T05:42:09.020Z,99741.71
2017-10-05T05:43:10.949Z,99740.14
2017-10-05T05:44:12.941Z,99733.16
2017-10-05T05:45:14.854Z,99729.22
2017-10-05T05:46:16.847Z,99722.72
2017-10-05T05:47:18.818Z,99720.34
2017-10-05T05:48:20.850Z,99723.09
2017-10-05T05:49:22.837Z,99719.16
2017-10-05T05:50:24.774Z,99716.11
2017-10-05T05:51:26.674Z,99719.16
2017-10-05T05:52:28.586Z,99716.01
2017-10-05T05:53:30.479Z,99711.91
2017-10-05T05:54:32.481Z,99708.89
2017-10-05T05:55:34.409Z,99710.23
2017-10-05T05:56:36.339Z,99703.05
2017-10-05T05:57:38.312Z,99701.91
2017-10-05T05:58:40.313Z,99701.41
2017-10-05T05:59:42.327Z,99697.41
2017-10-05T06:00:44.214Z,99697.70
2017-10-05T06:01:46.291Z,99681.47
2017-10-05T06:02:48.198Z,99677.31
2017-10-05T06:03:50.143Z,99677.77
2017-10-05T06:04:52.153Z,99670.36
2017-10-05T06:05:54.086Z,99668.48
2017-10-05T06:06:56.009Z,99662.81
2017-10-05T06:07:57.962Z,99662.33
2017-10-05T06:08:59.872Z,99666.26
2017-10-05T06:10:01.875Z,99652.81
2017-10-05T06:11:04.265Z,99659.41
2017-10-05T06:12:06.194Z,99658.88
2017-10-05T06:13:08.137Z,99656.19
2017-10-05T06:14:10.048Z,99654.45
2017-10-05T06:15:12.009Z,99650.02
2017-10-05T06:16:13.901Z,99652.68
2017-10-05T06:17:15.801Z,99642.94
2017-10-05T06:18:20.917Z,99646.70
2017-10-05T06:19:22.909Z,99646.20
2017-10-05T06:20:24.929Z,99636.53
2017-10-05T06:21:26.853Z,99635.81
2017-10-05T06:22:28.772Z,99639.33
2017-10-05T06:23:30.734Z,99633.58
2017-10-05T06:24:32.663Z,99634.33
2017-10-05T06:25:34.639Z,99631.70
2017-10-05T06:26:36.593Z,99627.31
2017-10-05T06:27:38.496Z,99631.28
2017-10-05T06:28:40.444Z,99630.86
2017-10-05T06:29:42.305Z,99622.66
2017-10-05T06:30:44.229Z,99631.39
2017-10-05T06:31:46.283Z,99623.55
2017-10-05T06:32:48.187Z,99617.95
2017-10-05T06:33:53.033Z,99619.19
2017-10-05T06:34:54.944Z,99609.97
2017-10-05T06:35:56.908Z,99590.62
2017-10-05T06:36:58.799Z,99600.94
2017-10-05T06:38:00.737Z,99601.53
2017-10-05T06:39:02.671Z,99599.77
2017-10-05T06:40:04.609Z,99600.19
2017-10-05T06:41:06.538Z,99594.77
2017-10-05T06:42:11.705Z,99593.10
2017-10-05T06:43:13.675Z,99589.13
2017-10-05T06:44:15.578Z,99589.48
2017-10-05T06:45:17.441Z,99592.05
2017-10-05T06:46:19.377Z,99590.52
2017-10-05T06:47:21.276Z,99586.16
2017-10-05T06:48:23.183Z,99586.02
2017-10-05T06:49:27.901Z,99586.08
2017-10-05T06:50:29.771Z,99588.45
2017-10-05T06:51:35.405Z,99581.90
2017-10-05T06:52:37.314Z,99582.11
2017-10-05T06:53:39.228Z,99575.23
2017-10-05T06:54:41.178Z,99578.63
2017-10-05T06:55:45.672Z,99576.16
2017-10-05T06:56:47.689Z,99569.45
2017-10-05T06:57:49.630Z,99560.73
2017-10-05T06:58:51.776Z,99560.41
2017-10-05T06:59:53.691Z,99558.64
2017-10-05T07:00:55.575Z,99547.61
2017-10-05T07:01:57.574Z,99548.77
2017-10-05T07:02:59.501Z,99548.88
2017-10-05T07:04:01.416Z,99546.65
2017-10-05T07:05:03.315Z,99561.22
2017-10-05T07:06:05.207Z,99555.52
2017-10-05T07:07:07.227Z,99540.33
2017-10-05T07:08:09.460Z,99525.08
2017-10-05T07:09:11.408Z,99529.52
2017-10-05T07:10:14.367Z,99529.95
2017-10-05T07:11:16.258Z,99521.64
2017-10-05T07:12:18.202Z,99527.22
2017-10-05T07:13:20.107Z,99517.56
2017-10-05T07:14:21.995Z,99513.63
2017-10-05T07:15:23.886Z,99509.58
2017-10-05T07:16:25.778Z,99505.96
2017-10-05T07:17:27.729Z,99509.52
2017-10-05T07:18:29.621Z,99502.91
2017-10-05T07:19:31.642Z,99500.25
2017-10-05T07:20:33.546Z,99493.27
2017-10-05T07:21:35.476Z,99496.28
2017-10-05T07:22:37.388Z,99491.53
2017-10-05T07:23:39.273Z,99503.27
2017-10-05T07:24:41.147Z,99496.73
2017-10-05T07:25:43.031Z,99490.87
2017-10-05T07:26:44.920Z,99500.81
2017-10-05T07:27:46.855Z,99492.66
2017-10-05T07:28:49.760Z,99490.84
2017-10-05T07:29:51.630Z,99493.89
2017-10-05T07:30:53.506Z,99491.77
2017-10-05T07:31:55.444Z,99486.52
2017-10-05T07:32:57.384Z,99483.93
2017-10-05T07:33:59.287Z,99480.30
2017-10-05T07:35:01.281Z,99476.83
2017-10-05T07:36:03.176Z,99476.41
2017-10-05T07:37:05.131Z,99483.25
2017-10-05T07:38:07.095Z,99479.27
2017-10-05T07:39:09.036Z,99479.27
2017-10-05T07:40:11.013Z,99480.13
2017-10-05T07:41:12.927Z,99480.83
2017-10-05T07:42:14.817Z,99473.23
2017-10-05T07:43:16.787Z,99476.63
2017-10-05T07:44:18.711Z,99466.17
2017-10-05T07:45:20.661Z,99469.30
2017-10-05T07:46:22.639Z,99462.73
2017-10-05T07:47:24.593Z,99457.02
2017-10-05T07:48:26.566Z,99463.20
2017-10-05T07:49:28.508Z,99453.59
2017-10-05T07:50:30.395Z,99449.61
2017-10-05T07:51:32.326Z,99444.32
2017-10-05T07:52:34.274Z,99448.41
2017-10-05T07:53:36.282Z,99441.11
2017-10-05T07:54:38.247Z,99438.38
2017-10-05T07:55:40.184Z,99434.01
2017-10-05T07:56:42.129Z,99430.11
2017-10-05T07:57:44.061Z,99419.84
2017-10-05T07:58:46.096Z,99413.90
2017-10-05T07:59:48.012Z,99415.64
2017-10-05T08:00:49.903Z,99412.20
2017-10-05T08:01:51.809Z,99407.65
2017-10-05T08:02:53.747Z,99409.50
2017-10-05T08:03:55.765Z,99408.97
2017-10-05T08:04:57.715Z,99418.11
2017-10-05T08:05:59.903Z,99414.26
2017-10-05T08:07:01.826Z,99427.84
2017-10-05T08:08:03.657Z,99411.70
2017-10-05T08:09:05.656Z,99414.83
2017-10-05T08:10:07.740Z,99417.50
2017-10-05T08:11:09.659Z,99418.42
2017-10-05T08:12:11.565Z,99411.36
2017-10-05T08:13:13.482Z,99406.48
2017-10-05T08:14:15.429Z,99406.53
2017-10-05T08:15:17.392Z,99401.44
2017-10-05T08:16:19.309Z,99403.09
2017-10-05T08:17:21.262Z,99410.66
2017-10-05T08:18:23.160Z,99396.53
2017-10-05T08:19:25.082Z,99391.16
2017-10-05T08:20:26.952Z,99392.09
2017-10-05T08:21:28.810Z,99397.49
2017-10-05T08:22:30.693Z,99394.67
2017-10-05T08:23:32.637Z,99394.05
2017-10-05T08:24:34.564Z,99386.06
2017-10-05T08:25:36.459Z,99384.02
2017-10-05T08:26:38.390Z,99389.42
2017-10-05T08:27:40.290Z,99382.23
2017-10-05T08:28:42.202Z,99368.53
2017-10-05T08:29:44.178Z,99367.64
2017-10-05T08:30:48.088Z,99370.61
2017-10-05T08:31:49.970Z,99381.34
2017-10-05T08:32:51.826Z,99378.34
2017-10-05T08:33:53.763Z,99373.59
2017-10-05T08:34:55.669Z,99358.59
2017-10-05T08:35:57.592Z,99360.87
2017-10-05T08:36:59.512Z,99367.80
2017-10-05T08:38:01.383Z,99358.80
2017-10-05T08:39:03.332Z,99358.83
2017-10-05T08:40:05.366Z,99353.23
2017-10-05T08:41:07.249Z,99357.83
2017-10-05T08:42:09.143Z,99355.13
2017-10-05T08:43:11.063Z,99356.01
2017-10-05T08:44:13.017Z,99354.23
2017-10-05T08:45:15.065Z,99348.98
2017-10-05T08:46:20.660Z,99340.21
2017-10-05T08:47:22.526Z,99342.83
2017-10-05T08:48:24.555Z,99339.73
2017-10-05T08:49:26.506Z,99340.33
2017-10-05T08:50:28.482Z,99338.78
2017-10-05T08:51:30.490Z,99332.69
2017-10-05T08:52:32.421Z,99336.97
2017-10-05T08:53:34.309Z,99338.23
2017-10-05T08:54:36.324Z,99338.23
2017-10-05T08:55:38.292Z,99343.02
2017-10-05T08:56:40.254Z,99331.20
2017-10-05T08:57:42.173Z,99324.52
2017-10-05T08:58:44.128Z,99330.66
2017-10-05T08:59:46.118Z,99321.52
2017-10-05T09:00:48.073Z,99318.38
2017-10-05T09:01:49.994Z,99318.72
2017-10-05T09:02:51.929Z,99314.28
2017-10-05T09:03:53.891Z,99323.90
2017-10-05T09:04:55.825Z,99315.58
2017-10-05T09:05:57.785Z,99318.45
2017-10-05T09:06:59.681Z,99310.89
2017-10-05T09:08:01.583Z,99296.19
2017-10-05T09:09:03.519Z,99297.30
2017-10-05T09:10:05.456Z,99288.35
2017-10-05T09:11:07.449Z,99287.20
2017-10-05T09:12:09.377Z,99273.14
2017-10-05T09:13:11.263Z,99279.34
2017-10-05T09:14:13.146Z,99277.95
2017-10-05T09:15:15.063Z,99274.97
2017-10-05T09:16:17.072Z,99284.52
2017-10-05T09:17:19.167Z,99279.13
2017-10-05T09:18:21.129Z,99271.94
2017-10-05T09:19:23.085Z,99266.00
2017-10-05T09:20:25.015Z,99264.36
2017-10-05T09:21:26.989Z,99270.20
2017-10-05T09:22:28.946Z,99257.44
2017-10-05T09:23:30.911Z,99250.80
2017-10-05T09:24:32.838Z,99251.64
2017-10-05T09:25:34.852Z,99243.34
2017-10-05T09:26:37.161Z,99245.63
2017-10-05T09:27:39.821Z,99238.72
2017-10-05T09:28:41.785Z,99233.89
2017-10-05T09:29:43.685Z,99232.31
2017-10-05T09:30:45.601Z,99233.59
2017-10-05T09:31:47.590Z,99235.33
2017-10-05T09:32:49.730Z,99234.95
2017-10-05T09:33:51.710Z,99226.55
2017-10-05T09:34:53.632Z,99217.09
2017-10-05T09:35:55.509Z,99231.56
2017-10-05T09:36:57.458Z,99243.27
2017-10-05T09:37:59.965Z,99224.52
2017-10-05T09:39:03.381Z,99226.56
2017-10-05T09:40:08.554Z,99233.14
2017-10-05T09:41:10.494Z,99236.56
2017-10-05T09:42:12.433Z,99229.02
2017-10-05T09:43:14.378Z,99216.42
2017-10-05T09:44:20.274Z,99224.78
2017-10-05T09:45:23.206Z,99214.00
2017-10-05T09:46:25.152Z,99208.36
2017-10-05T09:47:27.119Z,99206.79
2017-10-05T09:48:29.143Z,99200.47
2017-10-05T09:49:31.059Z,99201.81
2017-10-05T09:50:33.349Z,99194.12
2017-10-05T09:51:35.229Z,99199.85
2017-10-05T09:52:37.186Z,99195.59
2017-10-05T09:53:39.120Z,99198.90
2017-10-05T09:54:41.017Z,99184.30
2017-10-05T09:55:42.925Z,99181.80
2017-10-05T09:56:48.461Z,99184.46
2017-10-05T09:57:50.387Z,99181.05
2017-10-05T09:58:52.314Z,99177.57
2017-10-05T09:59:54.321Z,99174.52
2017-10-05T10:00:56.247Z,99167.33
2017-10-05T10:01:58.175Z,99167.67
2017-10-05T10:03:00.137Z,99153.70
2017-10-05T10:04:02.070Z,99161.59
2017-10-05T10:05:05.979Z,99159.01
2017-10-05T10:06:08.978Z,99143.70
2017-10-05T10:07:10.907Z,99144.47
2017-10-05T10:08:12.803Z,99149.68
2017-10-05T10:09:15.616Z,99145.31
2017-10-05T10:10:18.430Z,99144.39
2017-10-05T10:11:20.387Z,99144.56
2017-10-05T10:12:23.320Z,99130.98
2017-10-05T10:13:26.085Z,99148.59
2017-10-05T10:14:28.073Z,99150.53
2017-10-05T10:15:29.942Z,99150.40
2017-10-05T10:16:31.939Z,99130.48
2017-10-05T10:17:33.878Z,99146.70
2017-10-05T10:18:35.859Z,99144.96
2017-10-05T10:19:37.798Z,99136.98
2017-10-05T10:20:39.721Z,99127.84
2017-10-05T10:21:41.689Z,99135.80
2017-10-05T10:22:43.614Z,99131.66
2017-10-05T10:23:45.563Z,99125.31
2017-10-05T10:24:47.508Z,99120.52
2017-10-05T10:25:49.364Z,99138.58
2017-10-05T10:26:51.308Z,99121.14
2017-10-05T10:27:53.227Z,99120.52
2017-10-05T10:28:55.184Z,99122.54
2017-10-05T10:29:57.441Z,99124.75
2017-10-05T10:30:59.405Z,99119.91
2017-10-05T10:32:01.246Z,99117.75
2017-10-05T10:33:04.049Z,99113.09
2017-10-05T10:34:06.113Z,99102.33
2017-10-05T10:35:08.536Z,99096.53
2017-10-05T10:36:14.886Z,99120.16
2017-10-05T10:37:18.002Z,99090.91
2017-10-05T10:38:19.905Z,99097.81
2017-10-05T10:39:21.845Z,99097.48
2017-10-05T10:40:23.736Z,99095.13
2017-10-05T10:41:26.377Z,99086.39
2017-10-05T10:42:28.297Z,99086.09
2017-10-05T10:43:30.305Z,99087.84
2017-10-05T10:44:32.311Z,99076.70
2017-10-05T10:45:34.262Z,99087.89
2017-10-05T10:46:36.179Z,99067.47
2017-10-05T10:47:38.113Z,99066.77
2017-10-05T10:48:40.091Z,99068.69
2017-10-05T10:49:42.301Z,99071.52
2017-10-05T10:50:44.282Z,99071.37
2017-10-05T10:51:51.656Z,99065.77
2017-10-05T10:54:01.132Z,99051.80
2017-10-05T10:55:03.142Z,99056.60
2017-10-05T10:56:05.117Z,99042.11
2017-10-05T10:57:07.458Z,99040.31
2017-10-05T10:58:09.422Z,99053.97
2017-10-05T10:59:11.346Z,99044.73
2017-10-05T11:00:13.323Z,99042.81
2017-10-05T11:01:15.249Z,99042.77
2017-10-05T11:02:17.277Z,99033.59
2017-10-05T11:03:19.282Z,99029.59
2017-10-05T11:04:21.248Z,99015.47
2017-10-05T11:05:23.467Z,99031.98
2017-10-05T11:06:27.778Z,99010.80
2017-10-05T11:07:30.120Z,99026.90
2017-10-05T11:08:32.238Z,99031.70
2017-10-05T11:09:35.721Z,99026.14
2017-10-05T11:10:37.720Z,99030.09
2017-10-05T11:11:40.573Z,99012.30
2017-10-05T11:12:42.695Z,98995.91
2017-10-05T11:13:44.639Z,98994.16
2017-10-05T11:14:48.351Z,98983.96
2017-10-05T11:15:50.307Z,98988.59
2017-10-05T11:16:52.241Z,98982.40
2017-10-05T11:17:54.230Z,98976.11
2017-10-05T11:18:56.262Z,98961.73
2017-10-05T11:19:59.132Z,98968.56
2017-10-05T11:21:03.086Z,98976.78
2017-10-05T11:22:05.004Z,98981.14
2017-10-05T11:23:06.950Z,98972.11
2017-10-05T11:24:08.910Z,98972.53
2017-10-05T11:25:13.911Z,98972.66
2017-10-05T11:26:15.938Z,98987.63
2017-10-05T11:27:18.064Z,99000.67
2017-10-05T11:28:21.257Z,98987.61
2017-10-05T11:29:23.164Z,98988.93
2017-10-05T11:30:25.099Z,98973.90
2017-10-05T11:31:27.081Z,98991.09
2017-10-05T11:32:32.906Z,98959.66
2017-10-05T11:33:35.563Z,98973.52
2017-10-05T11:34:37.565Z,98966.84
2017-10-05T11:35:39.460Z,98983.98
2017-10-05T11:36:43.286Z,98970.97
2017-10-05T11:37:45.189Z,98964.50
2017-10-05T11:38:47.154Z,98953.39
2017-10-05T11:39:49.138Z,98957.77
2017-10-05T11:40:51.072Z,98957.94
2017-10-05T11:41:53.680Z,98961.39
2017-10-05T11:42:55.633Z,98958.45
2017-10-05T11:43:57.570Z,98957.02
2017-10-05T11:44:59.473Z,98945.56
2017-10-05T11:46:01.348Z,98941.35
2017-10-05T11:47:03.387Z,98944.22
2017-10-05T11:49:18.491Z,98960.64
2017-10-05T11:50:20.430Z,98913.56
2017-10-05T11:51:23.182Z,98906.45
2017-10-05T11:52:25.703Z,98911.16
2017-10-05T11:53:28.041Z,98899.95
2017-10-05T11:54:31.735Z,98891.14
2017-10-05T11:55:33.839Z,98893.66
2017-10-05T11:56:35.817Z,98871.80
2017-10-05T11:57:38.474Z,98892.56
2017-10-05T11:58:44.430Z,98891.08
2017-10-05T11:59:47.107Z,98898.80
2017-10-05T12:00:49.058Z,98885.26
2017-10-05T12:01:50.958Z,98878.24
2017-10-05T12:02:52.857Z,98901.17
2017-10-05T12:03:55.394Z,98887.64
2017-10-05T12:04:57.381Z,98890.06
2017-10-05T12:05:59.327Z,98901.38
2017-10-05T12:07:01.444Z,98891.80